KBBP

Marlboro County Jetport - H E Avent Field Airport

Bennettsville, South Carolina, USA
METAR KBBP 250515Z AUTO 00000KT 7SM OVC005 23/23 A3013 RMK AO2
Observed Flight Rules
May-25 @ 05:15 UTC (5 minutes ago) Instrument Flight Rules
Visibility Clouds
7 miles
  • Overcast at 500' AGL
Temperatures Readings
Current 23°C / 73°F
Dewpoint 23°C / 73°F
Humidity 100%
Altimeter 30.13" Hg
Pressure 1020 hPa
Elevation 45
METAR KBBP 250515Z AUTO 00000KT 7SM OVC005 23/23 A3013 RMK AO2
Observed Flight Rules
May-25 @ 05:15 UTC
(5 minutes ago)
IFR
Clouds
  • Overcast at 500' AGL
Temperature Dewpoint
23°C / 73°F 23°C / 73°F
Humidity Altimeter Pressure
100% 30.13" Hg 1020 hPa